Laida — EAVE — position and weather

sailwx.info

Track history (hours):
 
Tides and Currents Weather Stations Pressure Air Temp Water Temp Dewpoint Dewpoint Depression Visibility Wind Speed Wind Dir Waves Ship Positions

Laida

Last reported at 2017-Feb-19 10:30 UTC. Time now 2017-Feb-22 13:15 UTC.
Position N 43°21' E 003°42'.

Length 100 m; draft 6.5 m.

Type: Cargo ship. MMSI: 224509000.

Date/timePositionNaut miles runAvg speedWind from/ knotsBaromVisibWave heightAir tempDewpointWater temp
2017-Feb-19 10:30N 43°21' E 003°42'16110.5
2017-Feb-18 19:10N 40°58' E 002°01'711.9
2017-Feb-18 18:33N 40°52' E 001°57'1211.8
2017-Feb-18 17:33N 40°41' E 001°49'1211.8
2017-Feb-18 16:33N 40°31' E 001°42'1111.4
2017-Feb-18 15:33N 40°21' E 001°35'1111.5
2017-Feb-18 14:33N 40°10' E 001°30'1111.0
2017-Feb-18 13:33N 40°01' E 001°22'39410.3
2017-Feb-16 23:31N 35°57' W 005°10'8 8.1
2017-Feb-16 22:33N 35°54' W 005°19'0 0.2
2017-Feb-16 21:32N 35°54' W 005°19'0 0.0
2017-Feb-16 20:30N 35°54' W 005°19'0 0.0
2017-Feb-16 19:32N 35°54' W 005°19'0 0.0
2017-Feb-16 18:32N 35°54' W 005°19'0 0.0
2017-Feb-16 17:32N 35°54' W 005°19'0 0.0
2017-Feb-16 16:33N 35°54' W 005°19'2 1.6
2017-Feb-16 15:33N 35°55' W 005°18'2 2.3
2017-Feb-16 14:33N 35°57' W 005°16'0 0.4
2017-Feb-16 13:33N 35°57' W 005°16'1 0.7
2017-Feb-16 12:33N 35°57' W 005°17'3 3.3
2017-Feb-16 11:33N 35°57' W 005°21'5 5.4
2017-Feb-16 10:33N 35°57' W 005°27'1211.1
2017-Feb-16 09:27N 35°55' W 005°42'  
2017-Feb-09 12:33N 38°17' W 010°02'1111.0
2017-Feb-09 11:33N 38°27' W 010°05'1111.0
2017-Feb-09 10:32N 38°38' W 010°07'  
Track history (hours):
 
Tides and Currents Weather Stations Pressure Air Temp Water Temp Dewpoint Dewpoint Depression Visibility Wind Speed Wind Dir Waves Ship Positions

Laida

Last reported at 2017-Feb-19 10:30 UTC. Time now 2017-Feb-22 13:15 UTC.
Position N 43°21' E 003°42'.

Length 100 m; draft 6.5 m.

Type: Cargo ship. MMSI: 224509000.

Date/timePositionNaut miles runAvg speedWind from/ knotsBaromVisibWave heightAir tempDewpointWater temp
2017-Feb-19 10:30N 43°21' E 003°42'16110.5
2017-Feb-18 19:10N 40°58' E 002°01'711.9
2017-Feb-18 18:33N 40°52' E 001°57'1211.8
2017-Feb-18 17:33N 40°41' E 001°49'1211.8
2017-Feb-18 16:33N 40°31' E 001°42'1111.4
2017-Feb-18 15:33N 40°21' E 001°35'1111.5
2017-Feb-18 14:33N 40°10' E 001°30'1111.0
2017-Feb-18 13:33N 40°01' E 001°22'39410.3
2017-Feb-16 23:31N 35°57' W 005°10'8 8.1
2017-Feb-16 22:33N 35°54' W 005°19'0 0.2
2017-Feb-16 21:32N 35°54' W 005°19'0 0.0
2017-Feb-16 20:30N 35°54' W 005°19'0 0.0
2017-Feb-16 19:32N 35°54' W 005°19'0 0.0
2017-Feb-16 18:32N 35°54' W 005°19'0 0.0
2017-Feb-16 17:32N 35°54' W 005°19'0 0.0
2017-Feb-16 16:33N 35°54' W 005°19'2 1.6
2017-Feb-16 15:33N 35°55' W 005°18'2 2.3
2017-Feb-16 14:33N 35°57' W 005°16'0 0.4
2017-Feb-16 13:33N 35°57' W 005°16'1 0.7
2017-Feb-16 12:33N 35°57' W 005°17'3 3.3
2017-Feb-16 11:33N 35°57' W 005°21'5 5.4
2017-Feb-16 10:33N 35°57' W 005°27'1211.1
2017-Feb-16 09:27N 35°55' W 005°42'  
2017-Feb-09 12:33N 38°17' W 010°02'1111.0
2017-Feb-09 11:33N 38°27' W 010°05'1111.0
2017-Feb-09 10:32N 38°38' W 010°07'  

Dump ship's entire track history